createdAt,value
2022-12-27T00:00:39.121Z,71.85
2022-12-27T00:03:07.614Z,68.32
2022-12-27T00:05:35.881Z,67.13
2022-12-27T00:08:05.777Z,63.95
2022-12-27T00:10:34.595Z,66.97
2022-12-27T00:13:02.966Z,65.65
2022-12-27T00:15:31.182Z,60.38
2022-12-27T00:17:59.601Z,65.35
2022-12-27T00:20:28.015Z,62.85
2022-12-27T00:22:56.223Z,61.15
2022-12-27T00:25:25.876Z,61.00
2022-12-27T00:27:54.154Z,57.15
2022-12-27T00:30:22.461Z,54.80
2022-12-27T00:32:50.726Z,56.67
2022-12-27T00:35:19.089Z,62.15
2022-12-27T00:37:47.389Z,67.00
2022-12-27T00:40:15.600Z,67.85
2022-12-27T00:42:45.216Z,68.32
2022-12-27T00:45:13.412Z,70.93
2022-12-27T00:47:41.732Z,72.10
2022-12-27T00:50:10.543Z,68.60
2022-12-27T00:52:38.709Z,65.18
2022-12-27T00:55:09.223Z,61.47
2022-12-27T00:57:37.474Z,63.72
2022-12-27T01:00:10.527Z,59.85
2022-12-27T01:02:39.280Z,57.28
2022-12-27T01:05:08.382Z,60.50
2022-12-27T01:07:36.680Z,60.92
2022-12-27T01:10:05.763Z,61.92
2022-12-27T01:12:35.480Z,59.78
2022-12-27T01:15:04.342Z,63.40
2022-12-27T01:17:34.025Z,59.65
2022-12-27T01:20:03.512Z,60.00
2022-12-27T01:22:31.827Z,57.95
2022-12-27T01:25:00.101Z,58.97
2022-12-27T01:27:28.427Z,56.38
2022-12-27T01:29:56.572Z,57.65
2022-12-27T01:32:24.807Z,70.20
2022-12-27T01:34:54.651Z,61.88
2022-12-27T01:37:23.005Z,61.95
2022-12-27T01:39:51.376Z,63.13
2022-12-27T01:42:38.185Z,57.47
2022-12-27T01:45:15.150Z,58.42
2022-12-27T01:47:51.675Z,61.70
2022-12-27T01:50:26.684Z,61.67
2022-12-27T01:53:01.455Z,64.78
2022-12-27T01:55:35.024Z,71.22
2022-12-27T01:58:08.150Z,70.07
2022-12-27T02:00:36.942Z,72.95
2022-12-27T02:03:07.246Z,74.55
2022-12-27T02:05:41.734Z,78.07
2022-12-27T02:08:28.628Z,72.75
2022-12-27T02:10:58.577Z,74.70
2022-12-27T02:13:28.506Z,74.68
2022-12-27T02:15:56.756Z,76.50
2022-12-27T02:18:25.114Z,73.07
2022-12-27T02:21:25.189Z,71.72
2022-12-27T02:24:15.776Z,73.07
2022-12-27T02:26:52.084Z,72.90
2022-12-27T02:29:40.589Z,75.65
2022-12-27T02:32:13.147Z,73.25
2022-12-27T02:34:53.353Z,70.25
2022-12-27T02:37:24.774Z,68.45
2022-12-27T02:39:53.660Z,77.53
2022-12-27T02:42:51.460Z,72.30
2022-12-27T02:45:43.132Z,75.63
2022-12-27T02:48:33.706Z,72.00
2022-12-27T02:51:31.114Z,75.65
2022-12-27T02:54:09.077Z,78.88
2022-12-27T02:57:05.732Z,81.50
2022-12-27T03:00:03.437Z,83.18
2022-12-27T03:03:01.758Z,73.82
2022-12-27T03:05:42.881Z,79.25
2022-12-27T03:08:18.634Z,77.70
2022-12-27T03:11:07.564Z,83.40
2022-12-27T03:14:02.892Z,84.28
2022-12-27T03:16:37.920Z,78.85
2022-12-27T03:19:14.070Z,82.25
2022-12-27T03:22:05.745Z,83.97
2022-12-27T03:24:56.497Z,79.13
2022-12-27T03:27:30.132Z,79.35
2022-12-27T03:30:17.944Z,82.25
2022-12-27T03:33:08.477Z,82.95
2022-12-27T03:35:42.853Z,77.63
2022-12-27T03:38:14.098Z,80.97
2022-12-27T03:41:07.654Z,82.50
2022-12-27T03:43:38.084Z,82.75
2022-12-27T03:46:35.652Z,82.15
2022-12-27T03:49:16.761Z,79.55
2022-12-27T03:51:51.927Z,79.85
2022-12-27T03:54:26.645Z,80.53
2022-12-27T03:56:57.427Z,77.10
2022-12-27T03:59:27.444Z,83.75
2022-12-27T04:01:56.519Z,82.40
2022-12-27T04:04:25.011Z,81.70
2022-12-27T04:06:54.573Z,82.43
2022-12-27T04:09:40.425Z,80.78
2022-12-27T04:12:26.154Z,78.97
2022-12-27T04:15:12.209Z,81.53
2022-12-27T04:17:57.484Z,86.57
2022-12-27T04:20:43.785Z,87.43
2022-12-27T04:23:31.119Z,87.38
2022-12-27T04:26:16.643Z,88.85
2022-12-27T04:29:02.182Z,92.47
2022-12-27T04:31:48.304Z,86.50
2022-12-27T04:34:33.827Z,87.45
2022-12-27T04:37:02.121Z,86.47
2022-12-27T04:39:31.891Z,84.60
2022-12-27T04:42:17.883Z,86.28
2022-12-27T04:45:00.421Z,82.45
2022-12-27T04:47:57.476Z,83.07
2022-12-27T04:50:45.946Z,88.10
2022-12-27T04:53:36.114Z,81.15
2022-12-27T04:56:07.033Z,87.50
2022-12-27T04:58:35.759Z,87.47
2022-12-27T05:01:23.514Z,87.57
2022-12-27T05:03:54.014Z,89.28
2022-12-27T05:06:22.326Z,90.60
2022-12-27T05:09:08.303Z,83.15
2022-12-27T05:11:55.612Z,84.72
2022-12-27T05:14:23.861Z,86.18
2022-12-27T05:16:52.149Z,87.78
2022-12-27T05:19:20.477Z,81.88
2022-12-27T05:22:03.144Z,85.25
2022-12-27T05:24:49.275Z,82.45
2022-12-27T05:27:19.072Z,79.88
2022-12-27T05:29:47.918Z,82.03
2022-12-27T05:32:16.110Z,80.28
2022-12-27T05:34:44.274Z,74.80
2022-12-27T05:37:12.545Z,78.45
2022-12-27T05:39:40.801Z,75.38
2022-12-27T05:42:09.016Z,84.60
2022-12-27T05:44:38.694Z,84.13
2022-12-27T05:47:06.897Z,85.90
2022-12-27T05:49:35.287Z,84.00
2022-12-27T05:52:03.505Z,82.18
2022-12-27T05:54:31.737Z,82.97
2022-12-27T05:56:59.949Z,85.35
2022-12-27T05:59:28.208Z,80.10
2022-12-27T06:01:57.914Z,82.05
2022-12-27T06:04:26.267Z,84.45
2022-12-27T06:06:54.426Z,82.80
2022-12-27T06:09:22.745Z,82.75
2022-12-27T06:11:50.907Z,79.10
2022-12-27T06:14:19.164Z,71.15
2022-12-27T06:16:47.428Z,71.25
2022-12-27T06:19:17.208Z,75.50
2022-12-27T06:21:45.515Z,80.68
2022-12-27T06:24:13.733Z,79.45
2022-12-27T06:26:42.886Z,89.03
2022-12-27T06:29:12.942Z,90.72
2022-12-27T06:31:41.545Z,84.93
2022-12-27T06:34:11.516Z,86.05
2022-12-27T06:36:41.051Z,86.05
2022-12-27T06:39:09.336Z,86.20
2022-12-27T06:41:37.488Z,86.20
2022-12-27T06:44:06.104Z,87.78
2022-12-27T06:46:34.233Z,79.75
2022-12-27T06:49:03.631Z,83.60
2022-12-27T06:51:31.854Z,86.65
2022-12-27T06:54:01.458Z,86.57
2022-12-27T06:56:29.690Z,80.28
2022-12-27T06:58:57.972Z,83.57
2022-12-27T07:01:28.154Z,88.35
2022-12-27T07:03:58.588Z,88.78
2022-12-27T07:06:28.835Z,86.53
2022-12-27T07:08:57.837Z,88.80
2022-12-27T07:11:27.503Z,86.40
2022-12-27T07:13:56.978Z,84.63
2022-12-27T07:16:27.289Z,82.93
2022-12-27T07:18:57.130Z,84.68
2022-12-27T07:21:27.409Z,83.25
2022-12-27T07:23:56.491Z,82.57
2022-12-27T07:26:26.963Z,80.70
2022-12-27T07:28:57.253Z,80.30
2022-12-27T07:31:29.747Z,78.78
2022-12-27T07:33:59.039Z,74.05
2022-12-27T07:36:30.941Z,71.57
2022-12-27T07:38:59.104Z,70.10
2022-12-27T07:41:27.473Z,71.57
2022-12-27T07:43:57.448Z,70.97
2022-12-27T07:46:27.393Z,71.22
2022-12-27T07:48:56.813Z,67.57
2022-12-27T07:51:26.327Z,70.80
2022-12-27T07:53:55.187Z,69.47
2022-12-27T07:56:26.649Z,71.03
2022-12-27T07:58:57.972Z,75.18
2022-12-27T08:01:28.126Z,79.07
2022-12-27T08:03:56.787Z,85.38
2022-12-27T08:06:28.962Z,83.72
2022-12-27T08:08:58.997Z,94.40
2022-12-27T08:11:27.605Z,92.40
2022-12-27T08:13:57.318Z,90.55
2022-12-27T08:16:27.127Z,83.00
2022-12-27T08:18:56.022Z,78.40
2022-12-27T08:21:24.703Z,67.68
2022-12-27T08:23:52.874Z,74.45
2022-12-27T08:26:21.741Z,54.88
2022-12-27T08:28:49.959Z,64.20
2022-12-27T08:31:19.902Z,66.95
2022-12-27T08:33:48.079Z,60.83
2022-12-27T08:39:07.367Z,62.30
2022-12-27T08:41:35.645Z,64.97
2022-12-27T08:44:04.006Z,68.65
2022-12-27T08:46:33.709Z,65.53
2022-12-27T08:49:02.197Z,66.07
2022-12-27T08:51:38.705Z,64.05
2022-12-27T08:54:09.318Z,70.28
2022-12-27T08:56:37.612Z,64.95
2022-12-27T08:59:06.334Z,63.80
2022-12-27T09:01:36.087Z,65.50
2022-12-27T09:04:04.510Z,64.32
2022-12-27T09:06:33.042Z,64.00
2022-12-27T09:09:01.541Z,64.90
2022-12-27T09:11:32.409Z,74.75
2022-12-27T09:14:02.168Z,66.15
2022-12-27T09:16:31.583Z,62.85
2022-12-27T09:19:01.504Z,64.45
2022-12-27T09:21:31.970Z,67.40
2022-12-27T09:24:00.266Z,62.53
2022-12-27T09:26:31.195Z,59.63
2022-12-27T09:29:00.051Z,60.83
2022-12-27T09:31:28.940Z,50.65
2022-12-27T09:33:57.843Z,51.78
2022-12-27T09:36:29.884Z,50.25
2022-12-27T09:38:59.367Z,73.23
2022-12-27T09:42:44.505Z,69.07
2022-12-27T09:44:33.391Z,73.67
2022-12-27T09:47:07.349Z,69.50
2022-12-27T09:49:40.450Z,69.60
2022-12-27T09:52:15.902Z,70.90
2022-12-27T09:54:59.482Z,70.70
2022-12-27T09:57:37.268Z,66.17
2022-12-27T10:00:08.468Z,65.30
2022-12-27T10:02:37.388Z,65.50
2022-12-27T10:05:20.177Z,63.50
2022-12-27T10:08:03.542Z,63.37
2022-12-27T10:10:43.404Z,70.40
2022-12-27T10:13:24.078Z,67.03
2022-12-27T10:16:04.204Z,65.10
2022-12-27T10:18:43.768Z,73.63
2022-12-27T10:21:20.681Z,78.10
2022-12-27T10:23:55.799Z,78.43
2022-12-27T10:26:24.779Z,77.90
2022-12-27T10:28:57.600Z,74.17
2022-12-27T10:31:27.430Z,74.67
2022-12-27T10:33:57.956Z,69.83
2022-12-27T10:36:28.502Z,67.10
2022-12-27T10:38:58.345Z,59.30
2022-12-27T10:41:37.229Z,54.97
2022-12-27T10:44:11.597Z,53.53
2022-12-27T10:46:40.578Z,50.67
2022-12-27T10:49:22.254Z,50.53
2022-12-27T10:51:52.447Z,48.70
2022-12-27T10:54:25.331Z,49.37
2022-12-27T10:56:54.335Z,41.17
2022-12-27T10:59:24.878Z,40.20
2022-12-27T11:02:16.404Z,35.10
2022-12-27T11:04:58.170Z,37.87
2022-12-27T11:07:31.826Z,34.07
2022-12-27T11:10:15.723Z,33.07
2022-12-27T11:13:00.019Z,29.67
2022-12-27T11:15:30.030Z,29.13
2022-12-27T11:18:01.470Z,42.73
2022-12-27T11:20:32.121Z,50.47
2022-12-27T11:23:05.010Z,39.70
2022-12-27T11:25:36.195Z,35.60
2022-12-27T11:28:07.844Z,34.53
2022-12-27T11:30:39.066Z,36.87
2022-12-27T11:33:24.360Z,38.40
2022-12-27T11:35:55.629Z,47.57
2022-12-27T11:38:26.689Z,49.00
2022-12-27T11:41:03.435Z,46.00
2022-12-27T11:43:37.249Z,41.23
2022-12-27T11:46:11.811Z,38.53
2022-12-27T11:48:43.659Z,46.73
2022-12-27T11:51:39.131Z,48.13
2022-12-27T11:54:30.841Z,50.30
2022-12-27T11:57:15.793Z,47.30
2022-12-27T11:59:59.627Z,48.77
2022-12-27T12:02:34.816Z,51.20
2022-12-27T12:05:27.223Z,48.37
2022-12-27T12:08:07.857Z,48.10
2022-12-27T12:10:45.398Z,46.10
2022-12-27T12:13:35.385Z,46.33
2022-12-27T12:16:48.370Z,45.07
2022-12-27T12:19:31.918Z,40.53
2022-12-27T12:22:18.739Z,32.17
2022-12-27T12:25:02.848Z,35.57
2022-12-27T12:27:47.019Z,31.40
2022-12-27T12:30:49.652Z,31.50
2022-12-27T12:33:35.354Z,32.90
2022-12-27T12:36:29.307Z,37.27
2022-12-27T12:39:03.967Z,37.60
2022-12-27T12:42:01.769Z,35.57
2022-12-27T12:45:16.475Z,40.43
2022-12-27T12:48:19.958Z,40.20
2022-12-27T12:51:23.493Z,37.83
2022-12-27T12:54:23.259Z,38.87
2022-12-27T12:57:10.579Z,38.83
2022-12-27T13:00:09.261Z,36.13
2022-12-27T13:03:40.386Z,35.13
2022-12-27T13:06:21.465Z,33.70
2022-12-27T13:08:58.308Z,34.90
2022-12-27T13:11:39.112Z,31.77
2022-12-27T13:14:22.955Z,32.10
2022-12-27T13:16:59.821Z,30.17
2022-12-27T13:19:45.302Z,23.57
2022-12-27T13:22:23.086Z,12.87
2022-12-27T13:25:07.341Z,13.40
2022-12-27T13:27:43.140Z,8.73
2022-12-27T13:30:20.889Z,8.60
2022-12-27T13:33:16.475Z,6.93
2022-12-27T13:36:00.716Z,6.37
2022-12-27T13:38:44.911Z,6.95
2022-12-27T13:41:30.103Z,6.83
2022-12-27T13:44:28.629Z,7.10
2022-12-27T13:47:21.994Z,6.20
2022-12-27T13:50:04.775Z,7.47
2022-12-27T13:53:00.375Z,7.22
2022-12-27T13:55:48.618Z,8.45
2022-12-27T13:58:56.224Z,13.90
2022-12-27T14:01:50.063Z,8.73
2022-12-27T14:04:43.937Z,6.72
2022-12-27T14:07:43.679Z,7.50
2022-12-27T14:10:22.913Z,9.48
2022-12-27T14:13:03.215Z,10.10
2022-12-27T14:16:09.518Z,12.52
2022-12-27T14:18:52.924Z,14.07
2022-12-27T14:21:46.882Z,11.32
2022-12-27T14:24:37.022Z,8.82
2022-12-27T14:27:54.350Z,8.13
2022-12-27T14:31:04.832Z,7.40
2022-12-27T14:33:56.612Z,10.20
2022-12-27T14:37:06.952Z,7.00
2022-12-27T14:40:07.216Z,6.85
2022-12-27T14:42:58.558Z,9.30
2022-12-27T14:46:12.980Z,7.97
2022-12-27T14:49:17.888Z,9.35
2022-12-27T14:52:33.595Z,8.32
2022-12-27T14:55:47.106Z,9.68
2022-12-27T14:58:38.654Z,7.38
2022-12-27T15:01:17.743Z,7.05
2022-12-27T15:03:55.446Z,6.85
2022-12-27T15:06:48.728Z,7.60
2022-12-27T15:09:25.704Z,7.25
2022-12-27T15:12:08.336Z,7.65
2022-12-27T15:15:02.762Z,7.28
2022-12-27T15:17:51.436Z,6.93
2022-12-27T15:20:41.824Z,7.00
2022-12-27T15:23:22.185Z,7.00
2022-12-27T15:26:02.778Z,6.70
2022-12-27T15:28:47.827Z,8.07
2022-12-27T15:31:28.573Z,7.00
2022-12-27T15:34:12.367Z,5.78
2022-12-27T15:36:42.881Z,5.45
2022-12-27T15:39:44.484Z,5.25
2022-12-27T15:42:39.665Z,8.05
2022-12-27T15:45:27.218Z,6.95
2022-12-27T15:48:23.990Z,5.00
2022-12-27T15:50:59.870Z,5.65
2022-12-27T15:53:37.925Z,5.60
2022-12-27T15:56:23.920Z,5.72
2022-12-27T15:59:29.432Z,7.93
2022-12-27T16:02:42.333Z,6.88
2022-12-27T16:05:36.973Z,6.72
2022-12-27T16:08:39.691Z,7.80
2022-12-27T16:11:11.729Z,8.30
2022-12-27T16:13:46.232Z,6.80
2022-12-27T16:16:57.109Z,7.03
2022-12-27T16:19:50.687Z,13.77
2022-12-27T16:22:30.594Z,7.78
2022-12-27T16:25:14.418Z,5.13
2022-12-27T16:27:44.501Z,6.60
2022-12-27T16:30:14.132Z,7.35
2022-12-27T16:32:50.127Z,5.03
2022-12-27T16:35:18.696Z,5.35
2022-12-27T16:37:54.124Z,5.38
2022-12-27T16:40:39.317Z,4.65
2022-12-27T16:43:46.642Z,5.15
2022-12-27T16:46:59.615Z,3.97
2022-12-27T16:50:03.187Z,3.90
2022-12-27T16:52:53.620Z,4.78
2022-12-27T16:55:48.960Z,4.85
2022-12-27T16:58:23.438Z,4.63
2022-12-27T17:00:52.699Z,4.68
2022-12-27T17:03:44.488Z,4.75
2022-12-27T17:06:54.397Z,4.50
2022-12-27T17:09:43.667Z,4.32
2022-12-27T17:12:24.758Z,4.85
2022-12-27T17:15:01.005Z,4.60
2022-12-27T17:17:30.062Z,4.45
2022-12-27T17:20:03.334Z,5.28
2022-12-27T17:22:35.207Z,5.07
2022-12-27T17:25:04.955Z,5.00
2022-12-27T17:27:48.173Z,5.03
2022-12-27T17:30:21.831Z,4.72
2022-12-27T17:33:29.395Z,5.85
2022-12-27T17:36:18.000Z,7.60
2022-12-27T17:38:58.556Z,7.32
2022-12-27T17:41:55.825Z,7.78
2022-12-27T17:44:41.097Z,7.97
2022-12-27T17:47:37.115Z,9.05
2022-12-27T17:50:08.031Z,8.10
2022-12-27T17:52:53.750Z,7.18
2022-12-27T17:55:42.748Z,7.57
2022-12-27T17:58:13.063Z,7.38
2022-12-27T18:00:53.885Z,6.25
2022-12-27T18:03:23.421Z,7.07
2022-12-27T18:05:51.667Z,6.65
2022-12-27T18:08:29.073Z,5.60
2022-12-27T18:10:59.591Z,5.22
2022-12-27T18:13:31.081Z,5.05
2022-12-27T18:16:02.917Z,8.02
2022-12-27T18:18:34.386Z,7.97
2022-12-27T18:21:04.267Z,8.32
2022-12-27T18:23:41.793Z,8.35
2022-12-27T18:26:13.778Z,8.00
2022-12-27T18:28:43.629Z,8.43
2022-12-27T18:31:19.078Z,7.53
2022-12-27T18:33:51.369Z,8.27
2022-12-27T18:36:27.121Z,7.78
2022-12-27T18:39:00.067Z,6.68
2022-12-27T18:41:35.011Z,5.78
2022-12-27T18:44:05.507Z,5.43
2022-12-27T18:46:38.903Z,5.65
2022-12-27T18:49:07.355Z,6.35
2022-12-27T18:51:38.462Z,5.22
2022-12-27T18:54:23.152Z,5.55
2022-12-27T18:56:53.402Z,5.63
2022-12-27T18:59:26.061Z,5.28
2022-12-27T19:01:57.241Z,5.53
2022-12-27T19:04:27.649Z,7.18
2022-12-27T19:07:06.275Z,7.10
2022-12-27T19:09:38.610Z,10.73
2022-12-27T19:12:10.637Z,11.05
2022-12-27T19:14:44.386Z,7.10
2022-12-27T19:17:20.682Z,9.88
2022-12-27T19:19:52.009Z,6.57
2022-12-27T19:22:45.161Z,5.93
2022-12-27T19:25:32.560Z,5.90
2022-12-27T19:28:03.702Z,6.35
2022-12-27T19:30:39.343Z,5.32
2022-12-27T19:33:14.175Z,5.45
2022-12-27T19:35:43.679Z,6.53
2022-12-27T19:38:20.640Z,5.93
2022-12-27T19:40:52.081Z,7.85
2022-12-27T19:43:22.531Z,9.23
2022-12-27T19:45:50.807Z,7.93
2022-12-27T19:48:20.447Z,7.57
2022-12-27T19:50:50.818Z,7.70
2022-12-27T19:53:23.455Z,7.50
2022-12-27T19:55:51.747Z,8.07
2022-12-27T19:58:23.383Z,6.65
2022-12-27T20:00:51.572Z,9.02
2022-12-27T20:03:21.346Z,7.82
2022-12-27T20:06:14.985Z,5.50
2022-12-27T20:08:40.707Z,5.18
2022-12-27T20:11:14.246Z,6.65
2022-12-27T20:13:42.741Z,5.97
2022-12-27T20:16:12.188Z,6.15
2022-12-27T20:18:42.505Z,7.25
2022-12-27T20:21:13.277Z,6.15
2022-12-27T20:23:41.574Z,6.97
2022-12-27T20:26:10.514Z,9.60
2022-12-27T20:28:38.961Z,7.72
2022-12-27T20:31:07.786Z,6.47
2022-12-27T20:33:36.157Z,6.88
2022-12-27T20:36:06.461Z,6.65
2022-12-27T20:38:34.647Z,7.32
2022-12-27T20:41:07.456Z,7.80
2022-12-27T20:43:35.735Z,6.80
2022-12-27T20:46:07.676Z,6.38
2022-12-27T20:48:38.189Z,8.23
2022-12-27T20:51:09.309Z,7.85
2022-12-27T20:53:37.989Z,7.60
2022-12-27T20:56:08.893Z,8.30
2022-12-27T20:58:37.424Z,7.38
2022-12-27T21:01:09.689Z,7.70
2022-12-27T21:03:38.833Z,8.15
2022-12-27T21:06:10.657Z,11.07
2022-12-27T21:08:46.664Z,12.43
2022-12-27T21:11:19.998Z,14.98
2022-12-27T21:13:49.006Z,10.95
2022-12-27T21:16:18.502Z,10.18
2022-12-27T21:18:48.345Z,9.68
2022-12-27T21:21:20.182Z,13.15
2022-12-27T21:23:49.586Z,12.68
2022-12-27T21:26:19.921Z,14.52
2022-12-27T21:28:49.301Z,12.30
2022-12-27T21:31:18.643Z,12.75
2022-12-27T21:33:47.505Z,12.60
2022-12-27T21:36:18.846Z,11.15
2022-12-27T21:38:47.477Z,11.63
2022-12-27T21:41:17.574Z,10.55
2022-12-27T21:43:47.456Z,10.52
2022-12-27T21:46:17.600Z,11.27
2022-12-27T21:48:47.012Z,10.18
2022-12-27T21:51:18.231Z,12.02
2022-12-27T21:53:47.147Z,10.68
2022-12-27T21:56:16.584Z,11.35
2022-12-27T21:58:45.920Z,11.07
2022-12-27T22:01:17.891Z,11.30
2022-12-27T22:03:49.032Z,10.48
2022-12-27T22:06:20.930Z,10.05
2022-12-27T22:08:51.131Z,10.68
2022-12-27T22:11:20.759Z,11.60
2022-12-27T22:13:49.375Z,12.65
2022-12-27T22:16:19.573Z,10.93
2022-12-27T22:18:48.728Z,13.32
2022-12-27T22:21:20.987Z,16.13
2022-12-27T22:23:51.423Z,13.25
2022-12-27T22:26:21.675Z,11.88
2022-12-27T22:28:50.446Z,12.10
2022-12-27T22:31:20.596Z,16.95
2022-12-27T22:33:49.647Z,15.50
2022-12-27T22:36:21.043Z,16.05
2022-12-27T22:38:50.378Z,17.77
2022-12-27T22:41:20.613Z,14.60
2022-12-27T22:43:52.312Z,11.50
2022-12-27T22:46:21.231Z,14.27
2022-12-27T22:48:53.608Z,13.73
2022-12-27T22:51:25.902Z,12.40
2022-12-27T22:53:55.437Z,13.40
2022-12-27T22:56:25.800Z,12.90
2022-12-27T22:58:54.200Z,12.00
2022-12-27T23:01:24.558Z,12.52
2022-12-27T23:03:52.749Z,12.00
2022-12-27T23:06:23.013Z,10.18
2022-12-27T23:08:51.448Z,10.50
2022-12-27T23:11:22.061Z,9.40
2022-12-27T23:13:56.169Z,11.15
2022-12-27T23:16:24.850Z,10.95
2022-12-27T23:18:53.535Z,9.70
2022-12-27T23:21:24.794Z,9.95
2022-12-27T23:23:53.638Z,11.20
2022-12-27T23:26:23.958Z,10.25
2022-12-27T23:28:53.532Z,11.15
2022-12-27T23:31:23.944Z,11.52
2022-12-27T23:33:52.912Z,11.35
2022-12-27T23:36:23.407Z,9.88
2022-12-27T23:38:51.919Z,11.27
2022-12-27T23:41:21.982Z,11.35
2022-12-27T23:43:53.776Z,11.48
2022-12-27T23:46:25.213Z,11.40
2022-12-27T23:48:54.096Z,11.68
2022-12-27T23:51:25.520Z,11.82
2022-12-27T23:53:54.012Z,10.90
2022-12-27T23:56:24.568Z,10.35
2022-12-27T23:58:55.279Z,11.63
